Time;durP1;ratioP1;P1;durP2;ratioP2;P2;SDS_P1;SDS_P2;PMS_P1;PMS_P2;Temp;Humidity;BMP_temperature;BMP_pressure;BME280_temperature;BME280_humidity;BME280_pressure;Samples;Min_cycle;Max_cycle;Signal;HPM_P1;HPM_P2
2023/08/09 00:00:20;;;;;;;1.43;1.33;;;;;;;;;;5083542;28;20526;-79
2023/08/09 00:02:46;;;;;;;1.57;1.50;;;;;;;;;;5087385;28;20989;-78
2023/08/09 00:05:14;;;;;;;0.67;0.63;;;;;;;;;;5093234;28;20526;-80
2023/08/09 00:07:41;;;;;;;0.80;0.70;;;;;;;;;;5086077;28;20473;-76
2023/08/09 00:10:08;;;;;;;0.70;0.70;;;;;;;;;;5082177;28;20431;-77
2023/08/09 00:12:35;;;;;;;0.70;0.70;;;;;;;;;;5087406;28;20435;-77
2023/08/09 00:15:01;;;;;;;0.60;0.60;;;;;;;;;;5087764;28;20418;-78
2023/08/09 00:17:28;;;;;;;1.50;0.93;;;;;;;;;;5086408;28;20462;-78
2023/08/09 00:19:55;;;;;;;0.77;0.77;;;;;;;;;;5087158;28;20426;-76
2023/08/09 00:22:23;;;;;;;0.70;0.60;;;;;;;;;;5073068;28;20557;-76
2023/08/09 00:24:50;;;;;;;0.80;0.80;;;;;;;;;;5085914;28;20531;-74
2023/08/09 00:27:17;;;;;;;0.70;0.60;;;;;;;;;;5068901;28;20450;-79
2023/08/09 00:29:44;;;;;;;0.70;0.70;;;;;;;;;;5087679;28;20427;-77
2023/08/09 00:32:11;;;;;;;1.40;1.17;;;;;;;;;;5088025;28;20533;-80
2023/08/09 00:34:37;;;;;;;0.70;0.67;;;;;;;;;;5082852;28;20450;-78
2023/08/09 00:37:04;;;;;;;0.70;0.60;;;;;;;;;;5081689;28;20534;-78
2023/08/09 00:39:32;;;;;;;0.80;0.80;;;;;;;;;;5083886;28;20442;-79
2023/08/09 00:41:59;;;;;;;0.80;0.70;;;;;;;;;;5089243;28;20864;-78
2023/08/09 00:44:26;;;;;;;0.70;0.63;;;;;;;;;;5083719;28;20524;-77
2023/08/09 00:46:52;;;;;;;1.30;1.00;;;;;;;;;;5082578;28;20453;-78
2023/08/09 00:49:19;;;;;;;7.43;3.87;;;;;;;;;;5082832;28;20548;-78
2023/08/09 00:51:46;;;;;;;463.63;49.30;;;;;;;;;;5086879;28;20954;-78
2023/08/09 00:54:13;;;;;;;11.00;3.37;;;;;;;;;;5085147;28;20454;-76
2023/08/09 00:56:42;;;;;;;14.33;3.27;;;;;;;;;;5086179;28;20490;-76
2023/08/09 00:59:08;;;;;;;97.80;89.80;;;;;;;;;;5079040;28;21124;-77
2023/08/09 01:01:35;;;;;;;14.00;12.97;;;;;;;;;;5083616;28;20438;-74
2023/08/09 01:04:02;;;;;;;4.20;3.20;;;;;;;;;;5070626;28;20442;-77
2023/08/09 01:06:31;;;;;;;9.33;5.10;;;;;;;;;;5082289;28;20450;-77
2023/08/09 01:09:02;;;;;;;8.90;3.50;;;;;;;;;;5088756;28;20461;-76
2023/08/09 01:11:32;;;;;;;4.57;3.50;;;;;;;;;;5065685;28;20441;-76
2023/08/09 01:14:00;;;;;;;16.77;14.80;;;;;;;;;;5073409;28;20479;-79
2023/08/09 01:16:27;;;;;;;4.70;3.33;;;;;;;;;;5085433;28;20437;-80
2023/08/09 01:18:54;;;;;;;13.67;12.67;;;;;;;;;;5083500;28;20466;-77
2023/08/09 01:21:23;;;;;;;71.17;65.50;;;;;;;;;;5070270;28;20434;-79
2023/08/09 01:23:51;;;;;;;4.83;3.73;;;;;;;;;;5086997;28;20999;-74
2023/08/09 01:26:18;;;;;;;9.03;4.23;;;;;;;;;;5081856;28;20446;-77
2023/08/09 01:28:44;;;;;;;5.87;3.40;;;;;;;;;;5078771;28;20478;-76
2023/08/09 01:31:12;;;;;;;4.53;3.77;;;;;;;;;;5085577;28;20434;-78
2023/08/09 01:33:39;;;;;;;6.30;4.20;;;;;;;;;;5065799;28;20453;-78
2023/08/09 01:36:08;;;;;;;27.67;24.13;;;;;;;;;;5084250;28;20466;-76
2023/08/09 01:38:37;;;;;;;12.13;5.90;;;;;;;;;;5079736;28;20578;-78
2023/08/09 01:41:07;;;;;;;12.83;4.50;;;;;;;;;;5070378;28;20525;-77
2023/08/09 01:43:34;;;;;;;6.77;4.37;;;;;;;;;;5085195;28;20426;-77
2023/08/09 01:46:01;;;;;;;4.60;3.80;;;;;;;;;;5082949;28;20937;-75
2023/08/09 01:48:28;;;;;;;6.90;4.73;;;;;;;;;;5096595;28;20442;-76
2023/08/09 01:50:54;;;;;;;6.40;4.70;;;;;;;;;;5076070;28;20435;-77
2023/08/09 01:53:21;;;;;;;5.53;3.87;;;;;;;;;;5079211;28;20467;-76
2023/08/09 01:55:48;;;;;;;88.00;81.50;;;;;;;;;;5080415;28;20473;-75
2023/08/09 01:58:16;;;;;;;7.33;3.10;;;;;;;;;;5080480;28;21015;-76
2023/08/09 02:00:43;;;;;;;6.50;2.70;;;;;;;;;;5080784;28;20958;-76
2023/08/09 02:03:12;;;;;;;6.47;2.63;;;;;;;;;;5072555;28;20438;-75
2023/08/09 02:05:38;;;;;;;9.27;3.00;;;;;;;;;;5084270;28;20926;-77
2023/08/09 02:08:05;;;;;;;7.97;3.20;;;;;;;;;;5085311;28;20960;-76
2023/08/09 02:10:32;;;;;;;8.30;3.10;;;;;;;;;;5085943;28;20492;-76
2023/08/09 02:12:58;;;;;;;8.10;2.83;;;;;;;;;;5083353;28;20441;-76
2023/08/09 02:15:27;;;;;;;8.63;3.30;;;;;;;;;;5066644;28;20548;-76
2023/08/09 02:17:56;;;;;;;9.47;3.60;;;;;;;;;;5086892;28;20494;-76
2023/08/09 02:20:23;;;;;;;10.10;4.00;;;;;;;;;;5083906;28;20442;-76
2023/08/09 02:22:50;;;;;;;60.83;54.83;;;;;;;;;;5080262;28;20533;-79
2023/08/09 02:25:17;;;;;;;43.23;39.73;;;;;;;;;;5067975;28;20449;-79
2023/08/09 02:27:43;;;;;;;14.07;4.60;;;;;;;;;;5064571;28;20477;-79
2023/08/09 02:30:10;;;;;;;35.87;29.40;;;;;;;;;;5086139;28;20532;-80
2023/08/09 02:32:38;;;;;;;16.03;4.37;;;;;;;;;;5089733;28;20519;-79
2023/08/09 02:35:05;;;;;;;16.27;4.40;;;;;;;;;;5083260;28;20840;-77
2023/08/09 02:37:32;;;;;;;15.60;4.00;;;;;;;;;;5085405;28;20888;-77
2023/08/09 02:39:59;;;;;;;16.30;4.30;;;;;;;;;;5091648;28;20469;-79
2023/08/09 02:42:25;;;;;;;15.27;4.33;;;;;;;;;;5083461;28;20483;-78
2023/08/09 02:44:52;;;;;;;17.67;4.73;;;;;;;;;;5086330;28;20528;-80
2023/08/09 02:47:19;;;;;;;16.33;4.80;;;;;;;;;;5082809;28;20522;-78
2023/08/09 02:49:46;;;;;;;18.40;5.17;;;;;;;;;;5067615;28;20544;-78
2023/08/09 02:52:13;;;;;;;17.93;6.00;;;;;;;;;;5088532;28;20465;-78
2023/08/09 02:54:40;;;;;;;19.20;5.03;;;;;;;;;;5079750;28;20889;-79
2023/08/09 02:57:10;;;;;;;17.83;4.80;;;;;;;;;;5080409;28;20458;-79
2023/08/09 02:59:36;;;;;;;15.70;4.63;;;;;;;;;;5069091;28;20463;-79
2023/08/09 03:02:05;;;;;;;15.77;4.40;;;;;;;;;;5089373;28;20450;-81
2023/08/09 03:04:36;;;;;;;17.70;5.50;;;;;;;;;;5076643;28;20561;-80
2023/08/09 03:07:04;;;;;;;62.40;56.30;;;;;;;;;;5085281;28;20436;-79
2023/08/09 03:09:32;;;;;;;15.63;4.60;;;;;;;;;;5088876;28;20449;-79
2023/08/09 03:11:58;;;;;;;15.70;4.30;;;;;;;;;;5084764;28;20441;-81
2023/08/09 03:14:25;;;;;;;15.50;4.20;;;;;;;;;;5088394;28;20448;-80
2023/08/09 03:16:52;;;;;;;21.50;5.43;;;;;;;;;;5086387;28;20438;-80
2023/08/09 03:19:18;;;;;;;16.67;4.37;;;;;;;;;;5081994;28;20505;-82
2023/08/09 03:21:48;;;;;;;16.90;4.70;;;;;;;;;;5082130;28;20437;-83
2023/08/09 03:24:16;;;;;;;15.47;3.70;;;;;;;;;;5083560;28;20867;-83
2023/08/09 03:26:43;;;;;;;15.00;3.77;;;;;;;;;;5080651;28;20443;-82
2023/08/09 03:29:13;;;;;;;15.37;4.13;;;;;;;;;;5086948;28;20441;-84
2023/08/09 03:31:41;;;;;;;15.00;4.20;;;;;;;;;;5094077;28;20436;-82
2023/08/09 03:34:09;;;;;;;18.63;5.53;;;;;;;;;;5074768;28;20448;-82
2023/08/09 03:36:36;;;;;;;15.07;2.97;;;;;;;;;;5088596;28;20505;-82
2023/08/09 03:39:02;;;;;;;15.80;4.53;;;;;;;;;;5085458;28;20513;-83
2023/08/09 03:41:30;;;;;;;21.30;3.27;;;;;;;;;;5086523;28;20426;-82
2023/08/09 03:43:58;;;;;;;14.20;2.87;;;;;;;;;;5088171;28;20450;-81
2023/08/09 03:46:26;;;;;;;15.40;2.77;;;;;;;;;;5084991;28;20472;-82
2023/08/09 03:48:52;;;;;;;12.87;2.40;;;;;;;;;;5091983;28;20994;-81
2023/08/09 03:51:19;;;;;;;14.80;1.90;;;;;;;;;;5083583;28;20425;-81
2023/08/09 03:53:46;;;;;;;12.37;1.77;;;;;;;;;;5084869;28;20471;-80
2023/08/09 03:56:12;;;;;;;12.17;1.70;;;;;;;;;;5087116;28;20431;-80
2023/08/09 03:58:40;;;;;;;12.50;1.20;;;;;;;;;;5083535;28;20982;-80
2023/08/09 04:01:07;;;;;;;13.80;1.67;;;;;;;;;;5064723;28;20438;-81
2023/08/09 04:03:35;;;;;;;11.40;1.10;;;;;;;;;;5072015;28;20440;-80
2023/08/09 04:06:02;;;;;;;11.90;1.50;;;;;;;;;;5081854;28;20426;-80
2023/08/09 04:08:29;;;;;;;14.10;1.60;;;;;;;;;;5086122;28;20481;-80
2023/08/09 04:10:56;;;;;;;12.00;1.43;;;;;;;;;;5067285;28;20574;-80
2023/08/09 04:13:23;;;;;;;12.43;1.93;;;;;;;;;;5075918;28;20849;-79
2023/08/09 04:15:51;;;;;;;12.87;1.67;;;;;;;;;;5084907;28;20484;-78
2023/08/09 04:18:17;;;;;;;11.93;1.37;;;;;;;;;;5082628;28;20507;-78
2023/08/09 04:20:45;;;;;;;11.67;1.10;;;;;;;;;;5085386;28;20476;-78
2023/08/09 04:23:13;;;;;;;12.50;1.60;;;;;;;;;;5085918;28;20446;-80
2023/08/09 04:25:40;;;;;;;11.90;1.50;;;;;;;;;;5069348;28;20504;-78
2023/08/09 04:28:08;;;;;;;11.80;1.07;;;;;;;;;;5084473;28;20517;-81
2023/08/09 04:30:37;;;;;;;11.60;1.00;;;;;;;;;;5071073;28;20526;-81
2023/08/09 04:33:05;;;;;;;12.00;1.00;;;;;;;;;;5081040;28;20481;-80
2023/08/09 04:35:33;;;;;;;12.30;1.33;;;;;;;;;;5085091;28;20917;-79
2023/08/09 04:38:00;;;;;;;11.73;1.00;;;;;;;;;;5075378;28;20471;-81
2023/08/09 04:40:26;;;;;;;11.63;1.07;;;;;;;;;;5080553;28;20433;-80
2023/08/09 04:42:53;;;;;;;12.10;1.20;;;;;;;;;;5084208;28;20427;-79
2023/08/09 04:45:21;;;;;;;11.53;0.93;;;;;;;;;;5086156;28;20534;-80
2023/08/09 04:47:48;;;;;;;13.23;1.50;;;;;;;;;;5069742;28;20533;-78
2023/08/09 04:50:16;;;;;;;12.17;1.20;;;;;;;;;;5088138;28;20536;-79
2023/08/09 04:52:43;;;;;;;14.07;1.80;;;;;;;;;;5087385;28;20471;-78
2023/08/09 04:55:11;;;;;;;11.87;1.20;;;;;;;;;;5062493;28;20525;-80
2023/08/09 04:57:38;;;;;;;11.67;1.10;;;;;;;;;;5085540;28;20488;-78
2023/08/09 05:00:08;;;;;;;11.63;1.23;;;;;;;;;;5086800;28;20475;-79
2023/08/09 05:02:36;;;;;;;12.23;1.40;;;;;;;;;;5081509;28;20427;-79
2023/08/09 05:05:03;;;;;;;11.83;1.10;;;;;;;;;;5085262;28;20446;-79
2023/08/09 05:07:31;;;;;;;12.40;1.43;;;;;;;;;;5082969;28;20487;-80
2023/08/09 05:09:59;;;;;;;11.67;1.10;;;;;;;;;;5082721;28;20423;-77
2023/08/09 05:12:26;;;;;;;12.07;1.10;;;;;;;;;;5085218;28;20472;-75
2023/08/09 05:14:52;;;;;;;11.87;1.53;;;;;;;;;;5088738;28;20545;-78
2023/08/09 05:17:19;;;;;;;13.47;2.10;;;;;;;;;;5082362;28;20474;-76
2023/08/09 05:19:46;;;;;;;14.07;2.10;;;;;;;;;;5082292;28;20497;-77
2023/08/09 05:22:13;;;;;;;11.80;1.27;;;;;;;;;;5065902;28;20519;-78
2023/08/09 05:24:41;;;;;;;11.57;1.07;;;;;;;;;;5080789;28;20536;-75
2023/08/09 05:27:08;;;;;;;13.27;1.70;;;;;;;;;;5068459;28;20449;-76
2023/08/09 05:29:34;;;;;;;13.97;2.00;;;;;;;;;;5084539;28;20431;-77
2023/08/09 05:32:03;;;;;;;12.30;1.83;;;;;;;;;;5084132;28;20481;-79
2023/08/09 05:34:32;;;;;;;12.50;2.00;;;;;;;;;;5070096;28;20490;-77
2023/08/09 05:36:58;;;;;;;12.40;1.70;;;;;;;;;;5079926;28;20489;-77
2023/08/09 05:39:26;;;;;;;12.40;1.40;;;;;;;;;;5083569;28;20465;-78
2023/08/09 05:41:54;;;;;;;11.90;1.30;;;;;;;;;;5064027;28;20443;-78
2023/08/09 05:44:21;;;;;;;11.87;1.10;;;;;;;;;;5087320;28;20926;-76
2023/08/09 05:46:50;;;;;;;11.93;1.40;;;;;;;;;;5080530;28;20436;-77
2023/08/09 05:49:17;;;;;;;11.90;1.43;;;;;;;;;;5088877;28;20438;-76
2023/08/09 05:51:46;;;;;;;11.97;1.40;;;;;;;;;;5080825;28;20473;-77
2023/08/09 05:54:12;;;;;;;12.03;1.50;;;;;;;;;;5086408;28;20555;-77
2023/08/09 05:56:40;;;;;;;11.70;1.10;;;;;;;;;;5087284;28;20453;-77
2023/08/09 05:59:10;;;;;;;11.83;1.20;;;;;;;;;;5069354;28;20459;-77
2023/08/09 06:01:37;;;;;;;12.00;1.63;;;;;;;;;;5085806;28;20910;-79
2023/08/09 06:04:03;;;;;;;11.73;1.20;;;;;;;;;;5086920;28;20450;-77
2023/08/09 06:06:30;;;;;;;12.30;1.87;;;;;;;;;;5086252;28;20433;-77
2023/08/09 06:08:57;;;;;;;14.30;1.60;;;;;;;;;;5071130;28;20465;-78
2023/08/09 06:11:25;;;;;;;11.90;1.33;;;;;;;;;;5068137;28;20465;-77
2023/08/09 06:13:53;;;;;;;11.87;1.37;;;;;;;;;;5082601;28;20464;-77
2023/08/09 06:16:21;;;;;;;12.87;1.33;;;;;;;;;;5088165;28;20487;-76
2023/08/09 06:18:50;;;;;;;12.20;1.63;;;;;;;;;;5078125;28;20466;-76
2023/08/09 06:21:17;;;;;;;12.10;1.40;;;;;;;;;;5086255;28;20532;-76
2023/08/09 06:23:44;;;;;;;11.63;1.07;;;;;;;;;;5083745;28;20894;-76
2023/08/09 06:26:12;;;;;;;12.20;1.30;;;;;;;;;;5079409;28;20440;-75
2023/08/09 06:28:39;;;;;;;14.33;1.57;;;;;;;;;;5091106;28;20969;-77
2023/08/09 06:31:06;;;;;;;12.00;1.50;;;;;;;;;;5082585;28;20438;-76
2023/08/09 06:33:41;;;;;;;11.87;1.30;;;;;;;;;;5069344;28;20437;-78
2023/08/09 06:36:08;;;;;;;13.43;2.30;;;;;;;;;;5086336;28;20468;-80
2023/08/09 06:38:34;;;;;;;11.83;1.30;;;;;;;;;;5082889;28;20545;-80
2023/08/09 06:41:03;;;;;;;13.70;2.80;;;;;;;;;;5066900;28;20459;-80
2023/08/09 06:43:29;;;;;;;11.67;1.00;;;;;;;;;;5090027;28;20484;-79
2023/08/09 06:45:58;;;;;;;13.57;2.33;;;;;;;;;;5084659;28;20490;-79
2023/08/09 06:48:25;;;;;;;13.10;1.57;;;;;;;;;;5084094;28;20539;-79
2023/08/09 06:50:55;;;;;;;12.20;1.30;;;;;;;;;;5088846;28;20508;-79
2023/08/09 06:53:23;;;;;;;12.20;1.50;;;;;;;;;;5093090;28;20919;-78
2023/08/09 06:55:50;;;;;;;12.40;1.60;;;;;;;;;;5086133;28;20432;-79
2023/08/09 06:58:17;;;;;;;12.23;1.20;;;;;;;;;;5086582;28;20430;-78
2023/08/09 07:00:46;;;;;;;12.80;1.30;;;;;;;;;;5068907;28;20445;-79
2023/08/09 07:03:13;;;;;;;13.50;1.87;;;;;;;;;;5062459;28;20478;-78
2023/08/09 07:05:40;;;;;;;14.37;2.10;;;;;;;;;;5084191;28;20903;-77
2023/08/09 07:08:08;;;;;;;12.63;1.50;;;;;;;;;;5083540;28;20879;-76
2023/08/09 07:10:35;;;;;;;12.87;1.63;;;;;;;;;;5087195;28;20507;-78
2023/08/09 07:13:02;;;;;;;12.37;1.40;;;;;;;;;;5065847;28;20439;-77
2023/08/09 07:15:31;;;;;;;12.83;1.83;;;;;;;;;;5087447;28;20429;-76
2023/08/09 07:18:00;;;;;;;13.10;1.90;;;;;;;;;;5075025;28;20529;-76
2023/08/09 07:20:27;;;;;;;12.83;1.73;;;;;;;;;;5089840;28;21070;-75
2023/08/09 07:22:55;;;;;;;13.40;2.10;;;;;;;;;;5083760;28;20979;-75
2023/08/09 07:25:23;;;;;;;12.63;1.53;;;;;;;;;;5073313;28;20448;-77
2023/08/09 07:27:50;;;;;;;13.33;1.57;;;;;;;;;;5090074;28;20478;-76
2023/08/09 07:30:17;;;;;;;12.70;1.40;;;;;;;;;;5086462;28;20920;-77
2023/08/09 07:32:45;;;;;;;12.90;1.40;;;;;;;;;;5082087;28;20442;-77
2023/08/09 07:35:13;;;;;;;12.60;1.20;;;;;;;;;;5086074;28;21263;-75
2023/08/09 07:37:41;;;;;;;12.47;1.60;;;;;;;;;;5086925;28;20449;-75
2023/08/09 07:40:08;;;;;;;13.60;1.50;;;;;;;;;;5066423;28;20490;-76
2023/08/09 07:42:38;;;;;;;12.57;1.47;;;;;;;;;;5082613;28;20854;-77
2023/08/09 07:45:06;;;;;;;12.40;1.40;;;;;;;;;;5084861;28;20446;-76
2023/08/09 07:47:34;;;;;;;12.30;1.20;;;;;;;;;;5073375;28;20818;-77
2023/08/09 07:50:01;;;;;;;12.70;1.57;;;;;;;;;;5084095;28;20442;-76
2023/08/09 07:52:27;;;;;;;12.63;1.90;;;;;;;;;;5084318;28;20482;-77
2023/08/09 07:54:54;;;;;;;12.80;1.53;;;;;;;;;;5078941;28;20451;-77
2023/08/09 07:57:21;;;;;;;12.07;1.10;;;;;;;;;;5078055;28;20452;-76
2023/08/09 07:59:50;;;;;;;12.13;1.10;;;;;;;;;;5070570;28;20502;-77
2023/08/09 08:02:18;;;;;;;12.17;1.10;;;;;;;;;;5085738;28;20461;-77
2023/08/09 08:04:45;;;;;;;12.07;1.23;;;;;;;;;;5083701;28;20435;-76
2023/08/09 08:07:11;;;;;;;13.33;1.63;;;;;;;;;;5088716;28;20430;-77
2023/08/09 08:09:41;;;;;;;12.10;1.00;;;;;;;;;;5089653;28;20442;-76
2023/08/09 08:12:08;;;;;;;12.33;1.13;;;;;;;;;;5085437;28;20524;-76
2023/08/09 08:14:51;;;;;;;13.30;1.57;;;;;;;;;;5079964;28;20531;-76
2023/08/09 08:17:19;;;;;;;12.03;1.10;;;;;;;;;;5090391;28;20438;-77
2023/08/09 08:19:46;;;;;;;12.57;1.63;;;;;;;;;;5090403;28;20560;-75
2023/08/09 08:22:14;;;;;;;12.23;1.20;;;;;;;;;;5076453;28;20493;-77
2023/08/09 08:24:41;;;;;;;12.03;1.13;;;;;;;;;;5094384;28;20437;-78
2023/08/09 08:27:08;;;;;;;12.87;1.27;;;;;;;;;;5095899;28;20457;-80
2023/08/09 08:29:34;;;;;;;12.27;1.43;;;;;;;;;;5101234;28;20471;-78
2023/08/09 08:32:03;;;;;;;12.10;1.03;;;;;;;;;;5090278;28;20441;-78
2023/08/09 08:34:31;;;;;;;12.20;1.53;;;;;;;;;;5079085;28;20435;-82
2023/08/09 08:36:59;;;;;;;12.97;1.77;;;;;;;;;;5076784;28;20450;-76
2023/08/09 08:39:25;;;;;;;12.20;1.50;;;;;;;;;;5088525;28;20452;-79
2023/08/09 08:41:52;;;;;;;12.50;1.20;;;;;;;;;;5094659;28;20437;-78
2023/08/09 08:44:19;;;;;;;12.20;1.03;;;;;;;;;;5091544;28;20509;-79
2023/08/09 08:46:46;;;;;;;13.20;1.30;;;;;;;;;;5092285;28;20895;-81
2023/08/09 08:49:17;;;;;;;13.13;1.30;;;;;;;;;;5095302;28;20402;-78
2023/08/09 08:51:47;;;;;;;13.40;1.10;;;;;;;;;;5100129;28;20671;-80
2023/08/09 08:54:16;;;;;;;13.10;1.23;;;;;;;;;;5087574;28;20438;-78
2023/08/09 08:56:47;;;;;;;12.10;1.17;;;;;;;;;;5098993;28;20980;-79
2023/08/09 08:59:15;;;;;;;12.88;1.15;;;;;;;;;;5084323;28;20425;-77
2023/08/09 09:01:44;;;;;;;12.93;1.50;;;;;;;;;;5087046;28;20617;-78
2023/08/09 09:04:11;;;;;;;12.13;1.00;;;;;;;;;;5079105;28;20423;-79
2023/08/09 09:06:41;;;;;;;12.27;1.10;;;;;;;;;;5087243;28;20487;-80
2023/08/09 09:09:08;;;;;;;12.17;1.10;;;;;;;;;;5084191;28;20428;-78
2023/08/09 09:11:36;;;;;;;11.93;1.00;;;;;;;;;;5081637;28;20452;-78
2023/08/09 09:14:09;;;;;;;11.83;0.93;;;;;;;;;;5074479;28;20425;-79
2023/08/09 09:16:35;;;;;;;12.07;1.30;;;;;;;;;;5077066;28;20664;-79
2023/08/09 09:19:02;;;;;;;12.27;1.50;;;;;;;;;;5084512;28;21014;-79
2023/08/09 09:21:31;;;;;;;11.93;1.10;;;;;;;;;;5085732;28;20474;-79
2023/08/09 09:24:01;;;;;;;12.07;1.40;;;;;;;;;;5078677;28;20437;-80
2023/08/09 09:26:28;;;;;;;12.20;1.37;;;;;;;;;;5081455;28;20438;-80
2023/08/09 09:28:55;;;;;;;12.80;1.50;;;;;;;;;;5083566;28;20849;-80
2023/08/09 09:31:32;;;;;;;12.20;1.10;;;;;;;;;;5072388;28;20436;-79
2023/08/09 09:33:59;;;;;;;12.17;1.30;;;;;;;;;;5089224;28;20425;-80
2023/08/09 09:36:26;;;;;;;11.87;1.00;;;;;;;;;;5074074;28;20531;-80
2023/08/09 09:38:56;;;;;;;12.90;1.40;;;;;;;;;;5086518;28;20424;-80
2023/08/09 09:41:25;;;;;;;11.83;1.10;;;;;;;;;;5089794;28;21152;-80
2023/08/09 09:43:52;;;;;;;12.77;1.60;;;;;;;;;;5086514;28;20429;-80
2023/08/09 09:46:20;;;;;;;12.20;1.13;;;;;;;;;;5083245;28;20435;-79
2023/08/09 09:49:05;;;;;;;12.07;1.30;;;;;;;;;;5088544;28;20462;-80
2023/08/09 09:51:33;;;;;;;11.93;1.13;;;;;;;;;;5079065;28;20817;-80
2023/08/09 09:54:00;;;;;;;12.00;1.10;;;;;;;;;;5079903;28;20436;-81
2023/08/09 09:56:29;;;;;;;12.37;1.60;;;;;;;;;;5088446;28;20432;-83
2023/08/09 09:58:55;;;;;;;12.63;1.67;;;;;;;;;;5086730;28;20527;-83
2023/08/09 10:01:23;;;;;;;12.30;1.13;;;;;;;;;;5072095;28;20466;-83
2023/08/09 10:03:53;;;;;;;12.10;1.23;;;;;;;;;;5088274;28;20952;-82
2023/08/09 10:06:20;;;;;;;13.87;1.20;;;;;;;;;;5078875;28;20460;-84
2023/08/09 10:08:50;;;;;;;12.07;1.10;;;;;;;;;;5085065;28;20796;-83
2023/08/09 10:11:18;;;;;;;12.30;1.27;;;;;;;;;;5083654;28;20468;-84
2023/08/09 10:13:46;;;;;;;12.30;1.10;;;;;;;;;;5083864;28;20450;-84
2023/08/09 10:16:13;;;;;;;12.33;1.20;;;;;;;;;;5087480;28;20436;-83
2023/08/09 10:18:43;;;;;;;12.40;1.50;;;;;;;;;;5086802;28;20522;-81
2023/08/09 10:21:10;;;;;;;12.30;1.20;;;;;;;;;;5085644;28;20524;-80
2023/08/09 10:23:37;;;;;;;11.87;1.10;;;;;;;;;;5081768;28;20940;-81
2023/08/09 10:26:03;;;;;;;12.13;1.30;;;;;;;;;;5063162;28;20953;-81
2023/08/09 10:28:50;;;;;;;13.20;1.57;;;;;;;;;;5082895;28;20442;-82
2023/08/09 10:31:31;;;;;;;12.20;1.20;;;;;;;;;;5084595;28;20432;-83
2023/08/09 10:34:11;;;;;;;12.43;1.40;;;;;;;;;;5088927;28;20434;-82
2023/08/09 10:36:38;;;;;;;11.70;1.00;;;;;;;;;;5070708;28;20431;-83
2023/08/09 10:39:07;;;;;;;11.77;0.90;;;;;;;;;;5065613;28;20528;-81
2023/08/09 10:41:34;;;;;;;12.23;1.07;;;;;;;;;;5082020;28;20518;-83
2023/08/09 10:44:03;;;;;;;12.20;1.20;;;;;;;;;;5085540;28;20471;-81
2023/08/09 10:46:32;;;;;;;12.03;1.17;;;;;;;;;;5087938;28;20442;-80
2023/08/09 10:48:59;;;;;;;12.57;1.53;;;;;;;;;;5088378;28;20458;-81
2023/08/09 10:51:28;;;;;;;12.33;1.20;;;;;;;;;;5085540;28;20445;-81
2023/08/09 10:53:59;;;;;;;12.00;1.17;;;;;;;;;;5091932;28;20466;-82
2023/08/09 10:56:30;;;;;;;12.07;1.30;;;;;;;;;;5087181;28;20483;-80
2023/08/09 10:59:04;;;;;;;12.47;1.17;;;;;;;;;;5073558;28;20446;-83
2023/08/09 11:01:31;;;;;;;12.13;1.10;;;;;;;;;;5090543;28;20530;-81
2023/08/09 11:03:59;;;;;;;11.93;1.00;;;;;;;;;;5070698;28;20955;-81
2023/08/09 11:06:33;;;;;;;11.90;1.00;;;;;;;;;;5084318;28;20877;-82
2023/08/09 11:09:05;;;;;;;12.20;1.13;;;;;;;;;;5088688;28;20461;-83
2023/08/09 11:11:31;;;;;;;12.30;1.33;;;;;;;;;;5083337;28;20427;-80
2023/08/09 11:13:58;;;;;;;11.80;0.90;;;;;;;;;;5084875;28;20467;-80
2023/08/09 11:16:26;;;;;;;12.03;1.00;;;;;;;;;;5086367;28;20532;-81
2023/08/09 11:18:59;;;;;;;11.93;0.90;;;;;;;;;;5067616;28;20520;-80
2023/08/09 11:21:26;;;;;;;12.30;1.30;;;;;;;;;;5085871;28;20548;-80
2023/08/09 11:23:57;;;;;;;11.77;1.00;;;;;;;;;;5091526;28;20446;-80
2023/08/09 11:26:25;;;;;;;12.27;1.23;;;;;;;;;;5083441;28;20439;-80
2023/08/09 11:28:51;;;;;;;12.20;1.30;;;;;;;;;;5082625;28;20919;-80
2023/08/09 11:31:19;;;;;;;11.87;1.10;;;;;;;;;;5092277;28;20465;-80
2023/08/09 11:33:47;;;;;;;11.73;0.97;;;;;;;;;;5084280;28;20443;-80
2023/08/09 11:36:16;;;;;;;11.77;1.10;;;;;;;;;;5088336;28;20858;-80
2023/08/09 11:38:43;;;;;;;11.87;1.07;;;;;;;;;;5090939;28;20454;-81
2023/08/09 11:41:14;;;;;;;12.33;1.30;;;;;;;;;;5088005;28;20494;-80
2023/08/09 11:43:42;;;;;;;11.77;0.90;;;;;;;;;;5087989;28;20459;-80
2023/08/09 11:46:10;;;;;;;12.10;1.03;;;;;;;;;;5084320;28;20530;-79
2023/08/09 11:48:38;;;;;;;11.97;1.20;;;;;;;;;;5091841;28;20813;-80
2023/08/09 11:51:12;;;;;;;11.87;1.00;;;;;;;;;;5075781;28;20447;-80
2023/08/09 11:53:39;;;;;;;12.80;0.90;;;;;;;;;;5092458;28;20468;-80
2023/08/09 11:56:07;;;;;;;11.73;1.00;;;;;;;;;;5092339;28;20427;-82
2023/08/09 11:58:35;;;;;;;11.83;1.20;;;;;;;;;;5087920;28;20464;-82
2023/08/09 12:01:12;;;;;;;11.77;1.00;;;;;;;;;;5083986;28;20555;-81
2023/08/09 12:03:39;;;;;;;11.97;1.00;;;;;;;;;;5087199;28;20427;-82
2023/08/09 12:06:09;;;;;;;11.77;1.00;;;;;;;;;;5088393;28;20443;-84
2023/08/09 12:08:36;;;;;;;11.93;1.07;;;;;;;;;;5084805;28;20473;-83
2023/08/09 12:11:05;;;;;;;11.73;1.00;;;;;;;;;;5089515;28;20522;-81
2023/08/09 12:13:34;;;;;;;11.73;0.90;;;;;;;;;;5084491;28;20562;-83
2023/08/09 12:16:06;;;;;;;11.97;1.33;;;;;;;;;;5080811;28;20495;-80
2023/08/09 12:18:35;;;;;;;12.43;1.30;;;;;;;;;;5087582;28;20495;-83
2023/08/09 12:21:05;;;;;;;11.83;0.97;;;;;;;;;;5086513;28;20551;-82
2023/08/09 12:23:36;;;;;;;12.70;1.80;;;;;;;;;;5088177;28;20451;-81
2023/08/09 12:26:04;;;;;;;12.40;1.03;;;;;;;;;;5088357;28;20935;-82
2023/08/09 12:28:32;;;;;;;11.73;0.90;;;;;;;;;;5090792;28;20533;-83
2023/08/09 12:30:58;;;;;;;11.67;1.00;;;;;;;;;;5086177;28;20455;-80
2023/08/09 12:33:27;;;;;;;11.83;1.00;;;;;;;;;;5086212;28;20939;-81
2023/08/09 12:35:53;;;;;;;12.43;1.40;;;;;;;;;;5088978;28;20442;-81
2023/08/09 12:38:20;;;;;;;12.17;1.30;;;;;;;;;;5087014;28;20544;-81
2023/08/09 12:40:48;;;;;;;11.70;1.00;;;;;;;;;;5085049;28;20472;-81
2023/08/09 12:43:16;;;;;;;11.90;1.03;;;;;;;;;;5070101;28;20455;-81
2023/08/09 12:45:43;;;;;;;11.73;1.00;;;;;;;;;;5069330;28;20802;-81
2023/08/09 12:48:10;;;;;;;11.87;1.03;;;;;;;;;;5083407;28;20928;-82
2023/08/09 12:50:37;;;;;;;12.80;1.30;;;;;;;;;;5090567;28;20929;-80
2023/08/09 12:53:07;;;;;;;11.87;1.00;;;;;;;;;;5087530;28;20491;-82
2023/08/09 12:55:35;;;;;;;14.40;1.37;;;;;;;;;;5084518;28;20447;-82
2023/08/09 12:58:03;;;;;;;11.93;1.10;;;;;;;;;;5090096;28;20435;-81
2023/08/09 13:00:32;;;;;;;11.97;0.90;;;;;;;;;;5076151;28;20479;-81
2023/08/09 13:03:00;;;;;;;11.93;1.00;;;;;;;;;;5087574;28;20442;-82
2023/08/09 13:05:27;;;;;;;12.07;1.30;;;;;;;;;;5071011;28;20534;-81
2023/08/09 13:07:54;;;;;;;11.90;0.93;;;;;;;;;;5088944;28;20454;-82
2023/08/09 13:10:21;;;;;;;13.00;1.17;;;;;;;;;;5086589;28;21001;-81
2023/08/09 13:12:47;;;;;;;11.73;0.80;;;;;;;;;;5065269;28;20537;-80
2023/08/09 13:15:17;;;;;;;11.87;1.10;;;;;;;;;;5085853;28;20528;-81
2023/08/09 13:17:43;;;;;;;11.90;0.90;;;;;;;;;;5085552;28;21014;-82
2023/08/09 13:20:12;;;;;;;12.40;1.07;;;;;;;;;;5090647;28;20530;-81
2023/08/09 13:22:42;;;;;;;11.83;0.97;;;;;;;;;;5086199;28;20856;-82
2023/08/09 13:25:08;;;;;;;11.67;0.80;;;;;;;;;;5070992;28;20438;-82
2023/08/09 13:27:36;;;;;;;11.83;0.90;;;;;;;;;;5083999;28;20434;-81
2023/08/09 13:30:03;;;;;;;11.83;0.83;;;;;;;;;;5081603;28;20453;-81
2023/08/09 13:32:31;;;;;;;11.80;0.90;;;;;;;;;;5081644;28;20467;-80
2023/08/09 13:34:59;;;;;;;11.73;0.80;;;;;;;;;;5086375;28;20423;-82
2023/08/09 13:37:26;;;;;;;11.67;0.90;;;;;;;;;;5084556;28;20446;-80
2023/08/09 13:39:55;;;;;;;11.73;0.80;;;;;;;;;;5088047;28;20459;-82
2023/08/09 13:42:24;;;;;;;11.57;0.80;;;;;;;;;;5083573;28;20792;-82
2023/08/09 13:44:50;;;;;;;11.67;0.90;;;;;;;;;;5085026;28;20434;-81
2023/08/09 13:47:18;;;;;;;11.57;0.80;;;;;;;;;;5081937;28;20439;-79
2023/08/09 13:49:46;;;;;;;11.73;0.90;;;;;;;;;;5084149;28;20437;-81
2023/08/09 13:52:15;;;;;;;11.77;0.77;;;;;;;;;;5091523;28;20595;-82
2023/08/09 13:54:42;;;;;;;11.57;0.70;;;;;;;;;;5084833;28;20541;-81
2023/08/09 13:57:12;;;;;;;11.63;0.80;;;;;;;;;;5078275;28;20482;-79
2023/08/09 13:59:38;;;;;;;11.57;0.80;;;;;;;;;;5082560;28;20503;-81
2023/08/09 14:02:06;;;;;;;11.63;1.00;;;;;;;;;;5088569;28;20476;-80
2023/08/09 14:04:32;;;;;;;12.70;0.90;;;;;;;;;;5088806;28;20440;-78
2023/08/09 14:07:02;;;;;;;11.70;0.80;;;;;;;;;;5090685;28;20491;-80
2023/08/09 14:09:30;;;;;;;12.13;1.00;;;;;;;;;;5089872;28;20434;-80
2023/08/09 14:11:56;;;;;;;11.73;0.87;;;;;;;;;;5073927;28;20524;-79
2023/08/09 14:14:24;;;;;;;11.87;0.97;;;;;;;;;;5085718;28;20426;-79
2023/08/09 14:16:51;;;;;;;11.97;0.97;;;;;;;;;;5084969;28;20434;-79
2023/08/09 14:19:18;;;;;;;11.87;0.87;;;;;;;;;;5086977;28;20450;-79
2023/08/09 14:21:45;;;;;;;11.87;0.90;;;;;;;;;;5088440;28;20556;-79
2023/08/09 14:24:14;;;;;;;11.77;0.90;;;;;;;;;;5101463;28;20478;-80
2023/08/09 14:26:40;;;;;;;11.73;0.90;;;;;;;;;;5077971;28;20429;-79
2023/08/09 14:29:09;;;;;;;;;;;;;;;;;;5075335;28;20320;-80
2023/08/09 14:31:37;;;;;;;11.83;0.80;;;;;;;;;;5092984;28;20202;-81
2023/08/09 14:34:04;;;;;;;12.80;1.00;;;;;;;;;;5076297;28;20726;-80